createdAt,value
2019-02-14T00:00:06.079Z,2.20
2019-02-14T00:01:40.131Z,2.23
2019-02-14T00:03:14.531Z,2.10
2019-02-14T00:04:48.763Z,2.10
2019-02-14T00:06:22.755Z,2.20
2019-02-14T00:07:56.688Z,2.00
2019-02-14T00:09:30.610Z,2.20
2019-02-14T00:11:03.510Z,2.07
2019-02-14T00:12:37.208Z,2.33
2019-02-14T00:14:10.305Z,2.10
2019-02-14T00:15:44.490Z,2.13
2019-02-14T00:17:18.338Z,1.93
2019-02-14T00:18:52.076Z,2.43
2019-02-14T00:20:26.166Z,1.90
2019-02-14T00:22:00.396Z,1.97
2019-02-14T00:23:33.507Z,2.10
2019-02-14T00:25:07.325Z,2.63
2019-02-14T00:26:40.291Z,2.27
2019-02-14T00:28:13.518Z,2.13
2019-02-14T00:29:46.462Z,2.10
2019-02-14T00:31:21.291Z,2.00
2019-02-14T00:32:54.147Z,1.90
2019-02-14T00:34:28.065Z,1.80
2019-02-14T00:36:02.140Z,2.27
2019-02-14T00:37:35.803Z,2.00
2019-02-14T00:39:09.951Z,2.10
2019-02-14T00:40:43.925Z,2.10
2019-02-14T00:42:16.979Z,2.00
2019-02-14T00:43:50.702Z,2.40
2019-02-14T00:45:23.643Z,1.87
2019-02-14T00:46:57.406Z,2.33
2019-02-14T00:48:31.231Z,2.00
2019-02-14T00:50:05.176Z,2.00
2019-02-14T00:51:38.029Z,1.97
2019-02-14T00:53:11.698Z,2.00
2019-02-14T00:54:45.284Z,2.67
2019-02-14T00:56:19.186Z,2.10
2019-02-14T00:57:53.325Z,2.40
2019-02-14T00:59:27.327Z,2.07
2019-02-14T01:01:00.685Z,2.37
2019-02-14T01:02:35.360Z,2.33
2019-02-14T01:04:08.361Z,2.33
2019-02-14T01:05:42.384Z,2.20
2019-02-14T01:07:16.574Z,2.40
2019-02-14T01:08:51.114Z,3.30
2019-02-14T01:10:24.188Z,2.30
2019-02-14T01:11:58.179Z,2.30
2019-02-14T01:13:31.787Z,2.27
2019-02-14T01:15:05.173Z,2.60
2019-02-14T01:16:39.752Z,2.57
2019-02-14T01:18:13.653Z,2.40
2019-02-14T01:19:46.553Z,2.47
2019-02-14T01:21:19.312Z,3.07
2019-02-14T01:22:52.124Z,2.80
2019-02-14T01:24:25.494Z,2.70
2019-02-14T01:25:59.128Z,2.87
2019-02-14T01:27:33.247Z,3.80
2019-02-14T01:29:07.009Z,2.63
2019-02-14T01:30:41.122Z,2.70
2019-02-14T01:32:14.881Z,3.23
2019-02-14T01:33:47.777Z,3.50
2019-02-14T01:35:21.802Z,2.53
2019-02-14T01:36:55.639Z,2.83
2019-02-14T01:38:28.662Z,2.33
2019-02-14T01:40:02.557Z,2.63
2019-02-14T01:41:36.395Z,3.17
2019-02-14T01:43:10.211Z,2.63
2019-02-14T01:44:43.384Z,2.33
2019-02-14T01:46:17.191Z,2.67
2019-02-14T01:47:51.068Z,2.90
2019-02-14T01:49:23.847Z,2.53
2019-02-14T01:53:33.124Z,3.03
2019-02-14T01:55:05.998Z,3.13
2019-02-14T01:56:38.917Z,3.03
2019-02-14T01:58:12.678Z,3.07
2019-02-14T01:59:45.631Z,2.83
2019-02-14T02:01:20.523Z,3.03
2019-02-14T02:02:54.412Z,2.70
2019-02-14T02:04:28.198Z,3.10
2019-02-14T02:06:01.860Z,3.00
2019-02-14T02:07:35.894Z,2.80
2019-02-14T02:09:08.875Z,3.20
2019-02-14T02:10:41.909Z,3.03
2019-02-14T02:12:14.911Z,4.17
2019-02-14T02:13:49.142Z,3.80
2019-02-14T02:15:23.998Z,3.23
2019-02-14T02:16:56.815Z,3.47
2019-02-14T02:18:30.734Z,3.60
2019-02-14T02:20:04.506Z,3.00
2019-02-14T02:21:37.735Z,3.53
2019-02-14T02:23:11.692Z,4.00
2019-02-14T02:24:44.590Z,4.20
2019-02-14T02:26:18.471Z,4.00
2019-02-14T02:27:53.655Z,3.93
2019-02-14T02:29:27.495Z,3.60
2019-02-14T02:31:01.588Z,3.23
2019-02-14T02:32:35.671Z,2.90
2019-02-14T02:34:08.655Z,2.93
2019-02-14T02:35:42.098Z,3.30
2019-02-14T02:37:15.204Z,3.37
2019-02-14T02:38:49.190Z,3.60
2019-02-14T02:40:22.883Z,3.70
2019-02-14T02:41:56.511Z,3.77
2019-02-14T02:43:30.106Z,3.60
2019-02-14T02:45:04.041Z,3.07
2019-02-14T02:46:37.858Z,3.30
2019-02-14T02:48:11.688Z,4.17
2019-02-14T02:49:45.414Z,4.13
2019-02-14T02:51:19.216Z,4.37
2019-02-14T02:52:53.108Z,3.43
2019-02-14T02:54:27.719Z,4.73
2019-02-14T02:56:01.598Z,3.90
2019-02-14T02:57:34.538Z,3.30
2019-02-14T02:59:08.740Z,3.93
2019-02-14T03:00:42.717Z,3.67
2019-02-14T03:02:16.545Z,3.23
2019-02-14T03:03:50.724Z,3.43
2019-02-14T03:05:25.588Z,3.40
2019-02-14T03:06:58.416Z,3.70
2019-02-14T03:08:32.535Z,3.60
2019-02-14T03:10:06.497Z,3.80
2019-02-14T03:11:39.548Z,3.60
2019-02-14T03:13:13.513Z,3.90
2019-02-14T03:14:48.344Z,3.67
2019-02-14T03:16:21.254Z,4.00
2019-02-14T03:17:55.045Z,3.73
2019-02-14T03:19:28.058Z,4.10
2019-02-14T03:21:02.627Z,4.60
2019-02-14T03:22:35.660Z,4.00
2019-02-14T03:24:09.603Z,3.77
2019-02-14T03:25:43.608Z,4.00
2019-02-14T03:27:16.488Z,3.93
2019-02-14T03:28:49.626Z,4.73
2019-02-14T03:30:23.454Z,4.03
2019-02-14T03:31:57.469Z,4.63
2019-02-14T03:33:30.365Z,5.33
2019-02-14T03:35:04.247Z,4.43
2019-02-14T03:36:38.054Z,4.07
2019-02-14T03:38:11.962Z,4.30
2019-02-14T03:39:44.966Z,4.13
2019-02-14T03:41:18.965Z,4.90
2019-02-14T03:42:54.070Z,4.77
2019-02-14T03:44:26.773Z,4.53
2019-02-14T03:46:00.677Z,4.93
2019-02-14T03:47:33.692Z,4.90
2019-02-14T03:49:06.834Z,4.00
2019-02-14T03:50:40.105Z,4.67
2019-02-14T03:52:12.973Z,5.10
2019-02-14T03:53:45.778Z,5.13
2019-02-14T03:55:19.653Z,5.03
2019-02-14T03:56:53.435Z,5.30
2019-02-14T03:58:26.403Z,4.03
2019-02-14T04:00:00.268Z,4.53
2019-02-14T04:01:33.015Z,4.50
2019-02-14T04:03:06.762Z,4.53
2019-02-14T04:04:40.586Z,4.90
2019-02-14T04:06:14.664Z,5.17
2019-02-14T04:07:48.444Z,5.23
2019-02-14T04:09:21.211Z,5.67
2019-02-14T04:10:54.884Z,5.50
2019-02-14T04:12:28.930Z,5.17
2019-02-14T04:14:02.745Z,4.83
2019-02-14T04:15:37.742Z,4.97
2019-02-14T04:17:10.725Z,5.93
2019-02-14T04:18:44.536Z,4.73
2019-02-14T04:20:17.517Z,4.50
2019-02-14T04:21:50.384Z,5.40
2019-02-14T04:23:24.200Z,4.83
2019-02-14T04:24:57.083Z,4.27
2019-02-14T04:26:30.954Z,4.67
2019-02-14T04:28:04.747Z,5.87
2019-02-14T04:29:37.846Z,5.00
2019-02-14T04:31:11.511Z,5.90
2019-02-14T04:32:45.238Z,5.40
2019-02-14T04:34:19.054Z,5.23
2019-02-14T04:35:52.913Z,4.83
2019-02-14T04:37:26.039Z,5.83
2019-02-14T04:38:58.906Z,5.90
2019-02-14T04:40:33.942Z,5.27
2019-02-14T04:42:07.497Z,5.73
2019-02-14T04:43:41.472Z,5.03
2019-02-14T04:45:14.332Z,5.30
2019-02-14T04:46:47.321Z,4.67
2019-02-14T04:48:21.253Z,4.97
2019-02-14T04:49:55.197Z,5.17
2019-02-14T04:51:29.187Z,4.83
2019-02-14T04:53:02.233Z,5.10
2019-02-14T04:54:36.471Z,5.27
2019-02-14T04:56:09.243Z,4.70
2019-02-14T04:57:43.267Z,5.17
2019-02-14T04:59:17.172Z,4.93
2019-02-14T05:00:50.129Z,5.67
2019-02-14T05:02:23.223Z,4.17
2019-02-14T05:03:55.977Z,5.57
2019-02-14T05:05:29.787Z,5.33
2019-02-14T05:07:02.952Z,4.63
2019-02-14T05:08:37.447Z,5.00
2019-02-14T05:10:11.223Z,5.43
2019-02-14T05:11:45.097Z,4.33
2019-02-14T05:13:18.907Z,4.30
2019-02-14T05:14:52.780Z,4.37
2019-02-14T05:16:26.474Z,4.53
2019-02-14T05:17:59.413Z,4.47
2019-02-14T05:19:32.399Z,5.00
2019-02-14T05:21:06.530Z,4.97
2019-02-14T05:22:40.368Z,4.70
2019-02-14T05:24:14.214Z,4.60
2019-02-14T05:25:47.977Z,4.67
2019-02-14T05:27:21.006Z,4.83
2019-02-14T05:28:53.955Z,5.03
2019-02-14T05:30:28.156Z,5.07
2019-02-14T05:32:01.216Z,5.23
2019-02-14T05:33:34.318Z,5.07
2019-02-14T05:35:08.102Z,4.47
2019-02-14T05:36:40.907Z,5.13
2019-02-14T05:38:13.691Z,4.27
2019-02-14T05:39:47.580Z,4.33
2019-02-14T05:41:20.834Z,3.87
2019-02-14T05:42:54.448Z,4.10
2019-02-14T05:44:27.516Z,3.90
2019-02-14T05:46:01.117Z,4.30
2019-02-14T05:47:34.814Z,4.37
2019-02-14T05:49:08.812Z,3.90
2019-02-14T05:50:42.547Z,3.63
2019-02-14T05:52:16.266Z,4.00
2019-02-14T05:53:50.100Z,4.23
2019-02-14T05:55:24.017Z,4.60
2019-02-14T05:56:57.024Z,3.53
2019-02-14T05:58:30.789Z,3.97
2019-02-14T06:00:03.725Z,3.70
2019-02-14T06:01:37.687Z,4.70
2019-02-14T06:03:11.635Z,3.97
2019-02-14T06:04:45.873Z,4.20
2019-02-14T06:06:19.968Z,4.60
2019-02-14T06:07:53.078Z,4.50
2019-02-14T06:09:27.181Z,3.93
2019-02-14T06:11:01.205Z,3.53
2019-02-14T06:12:35.227Z,3.60
2019-02-14T06:14:09.266Z,3.70
2019-02-14T06:15:43.504Z,4.07
2019-02-14T06:17:17.330Z,3.90
2019-02-14T06:18:50.952Z,3.77
2019-02-14T06:20:23.819Z,3.63
2019-02-14T06:21:57.975Z,4.23
2019-02-14T06:23:31.035Z,4.40
2019-02-14T06:25:05.007Z,3.83
2019-02-14T06:26:38.766Z,3.90
2019-02-14T06:28:12.632Z,3.90
2019-02-14T06:29:46.363Z,3.70
2019-02-14T06:31:20.423Z,3.93
2019-02-14T06:32:54.516Z,3.40
2019-02-14T06:34:28.393Z,3.50
2019-02-14T06:36:02.055Z,3.90
2019-02-14T06:37:36.010Z,3.70
2019-02-14T06:39:10.024Z,3.53
2019-02-14T06:40:43.975Z,4.77
2019-02-14T06:42:16.893Z,3.73
2019-02-14T06:43:49.891Z,3.33
2019-02-14T06:45:24.926Z,3.33
2019-02-14T06:46:57.747Z,3.67
2019-02-14T06:48:30.611Z,3.37
2019-02-14T06:50:03.542Z,4.20
2019-02-14T06:51:37.209Z,3.23
2019-02-14T06:53:11.079Z,3.23
2019-02-14T06:54:44.857Z,3.37
2019-02-14T06:56:18.642Z,3.30
2019-02-14T06:57:52.513Z,2.90
2019-02-14T06:59:26.471Z,3.10
2019-02-14T07:00:59.565Z,2.93
2019-02-14T07:02:33.294Z,3.10
2019-02-14T07:04:07.229Z,2.43
2019-02-14T07:05:41.133Z,2.60
2019-02-14T07:07:18.609Z,2.80
2019-02-14T07:08:48.302Z,2.30
2019-02-14T07:10:23.280Z,3.07
2019-02-14T07:11:57.313Z,2.47
2019-02-14T07:13:30.978Z,2.83
2019-02-14T07:15:03.925Z,2.20
2019-02-14T07:16:37.949Z,2.30
2019-02-14T07:18:11.807Z,2.17
2019-02-14T07:19:44.795Z,2.70
2019-02-14T07:21:17.794Z,2.73
2019-02-14T07:22:51.692Z,2.23
2019-02-14T07:24:24.712Z,2.20
2019-02-14T07:25:58.761Z,2.17
2019-02-14T07:27:32.471Z,2.20
2019-02-14T07:29:06.307Z,2.20
2019-02-14T07:30:40.329Z,2.20
2019-02-14T07:32:13.172Z,2.07
2019-02-14T07:33:46.997Z,2.07
2019-02-14T07:35:20.952Z,2.20
2019-02-14T07:36:54.897Z,2.00
2019-02-14T07:38:28.938Z,2.20
2019-02-14T07:40:03.729Z,1.97
2019-02-14T07:41:37.513Z,2.60
2019-02-14T07:43:10.518Z,2.07
2019-02-14T07:44:44.401Z,1.70
2019-02-14T07:46:22.574Z,1.80
2019-02-14T07:47:51.390Z,2.50
2019-02-14T07:49:25.131Z,1.77
2019-02-14T07:50:59.950Z,2.00
2019-02-14T07:52:33.687Z,2.07
2019-02-14T07:54:07.481Z,2.10
2019-02-14T07:55:40.550Z,1.60
2019-02-14T07:57:14.323Z,1.67
2019-02-14T07:58:48.057Z,1.80
2019-02-14T08:00:22.093Z,1.80
2019-02-14T08:01:56.033Z,1.90
2019-02-14T08:03:29.997Z,2.00
2019-02-14T08:05:03.990Z,2.00
2019-02-14T08:06:37.919Z,1.97
2019-02-14T08:08:10.924Z,1.87
2019-02-14T08:09:43.712Z,2.00
2019-02-14T08:11:16.450Z,2.20
2019-02-14T08:12:49.415Z,1.70
2019-02-14T08:14:23.385Z,1.80
2019-02-14T08:15:57.244Z,2.00
2019-02-14T08:17:31.127Z,1.80
2019-02-14T08:19:04.266Z,1.50
2019-02-14T08:20:38.339Z,1.67
2019-02-14T08:22:11.934Z,1.87
2019-02-14T08:23:44.770Z,1.37
2019-02-14T08:25:18.070Z,1.70
2019-02-14T08:26:52.810Z,1.73
2019-02-14T08:28:25.449Z,1.40
2019-02-14T08:29:59.450Z,1.93
2019-02-14T08:31:33.339Z,1.17
2019-02-14T08:33:06.246Z,1.47
2019-02-14T08:34:40.109Z,1.30
2019-02-14T08:36:14.153Z,1.30
2019-02-14T08:37:48.267Z,1.13
2019-02-14T08:39:21.256Z,1.47
2019-02-14T08:40:55.369Z,1.50
2019-02-14T08:42:29.138Z,1.47
2019-02-14T08:44:03.028Z,1.33
2019-02-14T08:45:36.691Z,1.40
2019-02-14T08:47:10.613Z,1.30
2019-02-14T08:48:44.508Z,1.40
2019-02-14T08:50:17.367Z,1.43
2019-02-14T08:51:50.321Z,1.63
2019-02-14T08:53:23.618Z,1.67
2019-02-14T08:54:56.440Z,1.30
2019-02-14T08:56:30.185Z,1.60
2019-02-14T08:58:04.078Z,1.40
2019-02-14T08:59:38.096Z,1.47
2019-02-14T09:01:11.834Z,1.40
2019-02-14T09:02:45.938Z,1.10
2019-02-14T09:04:18.842Z,1.10
2019-02-14T09:05:52.540Z,1.37
2019-02-14T09:07:25.472Z,1.10
2019-02-14T09:08:59.509Z,1.10
2019-02-14T09:10:33.471Z,1.00
2019-02-14T09:12:07.392Z,1.30
2019-02-14T09:13:41.378Z,1.40
2019-02-14T09:15:15.127Z,1.00
2019-02-14T09:16:49.996Z,1.20
2019-02-14T09:18:23.635Z,1.60
2019-02-14T09:19:56.452Z,1.40
2019-02-14T09:21:30.493Z,1.20
2019-02-14T09:23:03.350Z,1.47
2019-02-14T09:24:36.432Z,1.60
2019-02-14T09:26:10.340Z,1.43
2019-02-14T09:27:43.254Z,1.40
2019-02-14T09:29:17.331Z,1.40
2019-02-14T09:30:51.405Z,1.80
2019-02-14T09:32:24.998Z,1.70
2019-02-14T09:33:59.106Z,1.60
2019-02-14T09:35:32.027Z,1.83
2019-02-14T09:37:04.985Z,1.70
2019-02-14T09:38:39.099Z,2.00
2019-02-14T09:40:12.962Z,1.40
2019-02-14T09:41:47.581Z,1.63
2019-02-14T09:43:29.433Z,2.13
2019-02-14T09:44:55.638Z,1.93
2019-02-14T09:46:28.677Z,1.83
2019-02-14T09:48:02.911Z,1.90
2019-02-14T09:49:36.011Z,1.80
2019-02-14T09:51:10.214Z,2.23
2019-02-14T09:52:44.233Z,2.03
2019-02-14T09:54:17.915Z,2.20
2019-02-14T09:55:51.709Z,2.00
2019-02-14T09:57:25.358Z,2.10
2019-02-14T09:58:59.296Z,1.90
2019-02-14T10:00:35.267Z,1.97
2019-02-14T10:02:09.163Z,2.30
2019-02-14T10:03:43.157Z,2.20
2019-02-14T10:05:17.316Z,2.50
2019-02-14T10:06:50.249Z,2.20
2019-02-14T10:08:25.109Z,2.07
2019-02-14T10:09:59.105Z,2.40
2019-02-14T10:11:31.978Z,2.20
2019-02-14T10:13:05.630Z,2.30
2019-02-14T10:14:38.571Z,2.33
2019-02-14T10:16:12.357Z,2.17
2019-02-14T10:17:45.217Z,2.17
2019-02-14T10:19:18.080Z,2.63
2019-02-14T10:20:52.186Z,2.07
2019-02-14T10:22:26.200Z,2.33
2019-02-14T10:23:59.935Z,2.60
2019-02-14T10:25:32.890Z,2.50
2019-02-14T10:27:06.775Z,2.37
2019-02-14T10:28:40.815Z,2.20
2019-02-14T10:30:13.773Z,2.67
2019-02-14T10:31:47.974Z,2.40
2019-02-14T10:33:21.789Z,2.40
2019-02-14T10:34:55.834Z,2.40
2019-02-14T10:36:29.782Z,2.40
2019-02-14T10:38:03.565Z,2.47
2019-02-14T10:39:37.544Z,2.70
2019-02-14T10:41:11.507Z,2.43
2019-02-14T10:42:45.205Z,2.50
2019-02-14T10:44:17.889Z,2.23
2019-02-14T10:45:52.113Z,2.47
2019-02-14T10:47:25.351Z,2.50
2019-02-14T10:48:59.182Z,2.60
2019-02-14T10:50:33.995Z,2.70
2019-02-14T10:52:07.862Z,2.60
2019-02-14T10:53:40.914Z,2.60
2019-02-14T10:55:13.855Z,2.90
2019-02-14T10:56:47.518Z,2.80
2019-02-14T10:58:21.738Z,2.80
2019-02-14T10:59:54.750Z,2.30
2019-02-14T11:01:29.426Z,2.97
2019-02-14T11:03:03.257Z,2.70
2019-02-14T11:04:37.245Z,2.93
2019-02-14T11:06:11.178Z,2.60
2019-02-14T11:07:44.031Z,2.60
2019-02-14T11:09:18.755Z,2.60
2019-02-14T11:10:52.683Z,2.77
2019-02-14T11:12:26.875Z,2.70
2019-02-14T11:14:01.343Z,2.67
2019-02-14T11:15:36.213Z,2.20
2019-02-14T11:17:09.902Z,2.30
2019-02-14T11:18:44.614Z,2.47
2019-02-14T11:20:17.924Z,2.30
2019-02-14T11:21:50.358Z,2.50
2019-02-14T11:23:24.413Z,2.53
2019-02-14T11:24:59.283Z,2.03
2019-02-14T11:26:32.085Z,2.63
2019-02-14T11:28:06.007Z,2.47
2019-02-14T11:29:39.103Z,2.87
2019-02-14T11:31:13.051Z,2.60
2019-02-14T11:32:46.798Z,1.87
2019-02-14T11:34:20.758Z,2.27
2019-02-14T11:35:54.683Z,2.20
2019-02-14T11:37:27.658Z,2.60
2019-02-14T11:39:01.490Z,2.10
2019-02-14T11:40:35.480Z,2.20
2019-02-14T11:42:09.257Z,2.20
2019-02-14T11:43:42.260Z,2.17
2019-02-14T11:45:16.071Z,2.40
2019-02-14T11:46:51.813Z,2.07
2019-02-14T11:48:24.968Z,2.20
2019-02-14T11:49:58.089Z,2.30
2019-02-14T11:51:32.077Z,2.20
2019-02-14T11:53:13.872Z,2.37
2019-02-14T11:54:39.366Z,2.33
2019-02-14T11:56:13.094Z,2.40
2019-02-14T11:57:46.863Z,2.50
2019-02-14T11:59:20.884Z,2.40
2019-02-14T12:00:54.990Z,2.50
2019-02-14T12:02:28.645Z,2.37
2019-02-14T12:04:01.555Z,2.43
2019-02-14T12:05:35.577Z,2.60
2019-02-14T12:07:08.570Z,2.67
2019-02-14T12:08:52.942Z,2.10
2019-02-14T12:10:15.654Z,2.50
2019-02-14T12:11:49.749Z,2.70
2019-02-14T12:13:23.729Z,2.90
2019-02-14T12:14:57.691Z,2.40
2019-02-14T12:16:31.435Z,2.87
2019-02-14T12:18:04.389Z,2.70
2019-02-14T12:19:39.162Z,2.47
2019-02-14T12:21:13.060Z,2.30
2019-02-14T12:22:47.406Z,2.60
2019-02-14T12:24:21.813Z,3.10
2019-02-14T12:25:55.657Z,3.00
2019-02-14T12:27:29.849Z,2.50
2019-02-14T12:29:03.807Z,2.37
2019-02-14T12:30:38.503Z,3.17
2019-02-14T12:32:13.653Z,2.80
2019-02-14T12:33:47.375Z,2.77
2019-02-14T12:35:21.107Z,2.47
2019-02-14T12:36:55.115Z,3.20
2019-02-14T12:38:28.834Z,2.97
2019-02-14T12:40:02.739Z,2.60
2019-02-14T12:41:36.577Z,3.20
2019-02-14T12:43:11.096Z,3.03
2019-02-14T12:44:45.053Z,3.60
2019-02-14T12:46:19.153Z,3.13
2019-02-14T12:47:52.872Z,3.20
2019-02-14T12:49:25.672Z,2.90
2019-02-14T12:50:58.569Z,2.60
2019-02-14T12:52:32.537Z,3.20
2019-02-14T12:54:07.332Z,3.00
2019-02-14T12:55:41.205Z,3.43
2019-02-14T12:57:15.065Z,3.40
2019-02-14T12:58:49.050Z,2.93
2019-02-14T13:00:24.894Z,3.60
2019-02-14T13:01:57.736Z,2.80
2019-02-14T13:03:31.778Z,3.00
2019-02-14T13:05:04.923Z,2.70
2019-02-14T13:06:38.867Z,3.07
2019-02-14T13:08:12.799Z,2.93
2019-02-14T13:09:47.534Z,3.63
2019-02-14T13:11:21.224Z,3.60
2019-02-14T13:12:54.194Z,3.30
2019-02-14T13:14:27.445Z,3.57
2019-02-14T13:16:00.536Z,4.00
2019-02-14T13:17:34.778Z,3.10
2019-02-14T13:19:07.980Z,3.77
2019-02-14T13:20:42.149Z,2.90
2019-02-14T13:22:16.186Z,3.77
2019-02-14T13:23:50.279Z,3.20
2019-02-14T13:25:25.080Z,3.40
2019-02-14T13:26:59.104Z,3.20
2019-02-14T13:28:33.110Z,3.37
2019-02-14T13:30:07.846Z,3.37
2019-02-14T13:31:41.888Z,3.60
2019-02-14T13:33:14.893Z,3.97
2019-02-14T13:34:48.901Z,3.23
2019-02-14T13:36:22.947Z,3.97
2019-02-14T13:37:56.731Z,4.00
2019-02-14T13:39:32.617Z,4.17
2019-02-14T13:41:04.735Z,4.00
2019-02-14T13:42:38.617Z,4.40
2019-02-14T13:44:12.118Z,4.33
2019-02-14T13:45:46.959Z,3.90
2019-02-14T13:47:20.942Z,4.20
2019-02-14T13:48:54.969Z,3.30
2019-02-14T13:50:30.000Z,3.93
2019-02-14T13:52:02.871Z,3.30
2019-02-14T13:53:35.953Z,3.67
2019-02-14T13:55:09.941Z,3.30
2019-02-14T13:56:43.788Z,3.30
2019-02-14T13:58:16.765Z,3.00
2019-02-14T13:59:50.507Z,3.07
2019-02-14T14:01:23.390Z,3.53
2019-02-14T14:02:56.924Z,4.03
2019-02-14T14:04:30.823Z,3.27
2019-02-14T14:06:04.631Z,3.10
2019-02-14T14:07:40.615Z,3.27
2019-02-14T14:09:12.409Z,2.73
2019-02-14T14:10:46.425Z,3.07
2019-02-14T14:12:19.430Z,2.87
2019-02-14T14:13:53.339Z,2.40
2019-02-14T14:15:27.268Z,2.90
2019-02-14T14:17:00.194Z,3.73
2019-02-14T14:18:34.299Z,2.70
2019-02-14T14:20:07.259Z,3.20
2019-02-14T14:21:41.075Z,2.77
2019-02-14T14:23:15.071Z,3.20
2019-02-14T14:24:49.419Z,3.20
2019-02-14T14:26:23.500Z,2.80
2019-02-14T14:27:57.230Z,3.13
2019-02-14T14:29:30.179Z,2.70
2019-02-14T14:31:04.058Z,2.70
2019-02-14T14:32:37.984Z,3.00
2019-02-14T14:34:12.993Z,3.10
2019-02-14T14:35:46.605Z,2.77
2019-02-14T14:37:20.494Z,2.60
2019-02-14T14:38:53.536Z,2.83
2019-02-14T14:40:27.681Z,2.63
2019-02-14T14:42:00.689Z,3.00
2019-02-14T14:43:44.771Z,2.87
2019-02-14T14:45:19.678Z,2.50
2019-02-14T14:47:00.812Z,2.80
2019-02-14T14:48:36.830Z,3.10
2019-02-14T14:50:10.578Z,3.03
2019-02-14T14:51:44.565Z,2.70
2019-02-14T14:53:17.417Z,2.70
2019-02-14T14:54:50.140Z,2.77
2019-02-14T14:56:22.949Z,2.57
2019-02-14T14:57:56.603Z,2.63
2019-02-14T14:59:29.561Z,2.97
2019-02-14T15:01:03.652Z,2.90
2019-02-14T15:02:36.629Z,3.40
2019-02-14T15:04:10.390Z,3.70
2019-02-14T15:05:44.326Z,2.70
2019-02-14T15:07:18.266Z,3.23
2019-02-14T15:08:52.388Z,3.37
2019-02-14T15:10:26.099Z,2.43
2019-02-14T15:11:58.817Z,2.70
2019-02-14T15:13:32.711Z,2.87
2019-02-14T15:15:06.533Z,2.70
2019-02-14T15:16:40.232Z,3.00
2019-02-14T15:18:13.234Z,3.00
2019-02-14T15:19:47.022Z,2.73
2019-02-14T15:21:19.849Z,2.93
2019-02-14T15:22:53.708Z,2.57
2019-02-14T15:24:27.617Z,2.90
2019-02-14T15:26:00.378Z,3.27
2019-02-14T15:27:33.168Z,2.80
2019-02-14T15:29:06.918Z,3.00
2019-02-14T15:30:40.869Z,3.67
2019-02-14T15:32:15.038Z,2.97
2019-02-14T15:33:49.067Z,2.80
2019-02-14T15:35:22.029Z,2.73
2019-02-14T15:36:55.015Z,3.13
2019-02-14T15:38:28.969Z,3.30
2019-02-14T15:40:09.245Z,3.27
2019-02-14T15:41:38.309Z,3.20
2019-02-14T15:43:12.301Z,3.60
2019-02-14T15:44:46.238Z,2.60
2019-02-14T15:46:20.325Z,2.97
2019-02-14T15:47:53.248Z,3.17
2019-02-14T15:49:27.313Z,3.43
2019-02-14T15:51:01.186Z,3.33
2019-02-14T15:52:35.195Z,2.80
2019-02-14T15:54:10.119Z,3.33
2019-02-14T15:55:43.915Z,2.77
2019-02-14T15:57:18.627Z,3.50
2019-02-14T15:58:52.413Z,3.30
2019-02-14T16:00:26.555Z,3.33
2019-02-14T16:02:00.419Z,3.33
2019-02-14T16:03:34.288Z,2.80
2019-02-14T16:05:08.331Z,3.40
2019-02-14T16:06:42.080Z,3.00
2019-02-14T16:08:16.173Z,3.07
2019-02-14T16:09:50.070Z,3.30
2019-02-14T16:11:22.945Z,2.60
2019-02-14T16:12:57.818Z,3.07
2019-02-14T16:14:31.945Z,2.57
2019-02-14T16:16:05.815Z,3.10
2019-02-14T16:17:39.579Z,2.93
2019-02-14T16:19:13.235Z,2.80
2019-02-14T16:20:47.091Z,2.93
2019-02-14T16:22:19.961Z,3.20
2019-02-14T16:23:55.219Z,3.17
2019-02-14T16:25:30.274Z,3.20
2019-02-14T16:27:03.337Z,3.40
2019-02-14T16:28:37.773Z,2.87
2019-02-14T16:30:10.900Z,3.20
2019-02-14T16:31:44.876Z,3.60
2019-02-14T16:33:18.709Z,3.63
2019-02-14T16:34:52.590Z,2.77
2019-02-14T16:36:26.633Z,3.17
2019-02-14T16:38:00.418Z,3.63
2019-02-14T16:39:33.281Z,2.80
2019-02-14T16:41:06.971Z,3.10
2019-02-14T16:42:40.905Z,2.80
2019-02-14T16:44:14.595Z,3.13
2019-02-14T16:45:48.725Z,3.10
2019-02-14T16:47:22.509Z,3.13
2019-02-14T16:48:56.369Z,3.13
2019-02-14T16:50:31.049Z,2.97
2019-02-14T16:52:04.910Z,3.53
2019-02-14T16:53:38.929Z,3.17
2019-02-14T16:55:12.843Z,3.00
2019-02-14T16:56:52.678Z,3.37
2019-02-14T16:58:26.755Z,3.30
2019-02-14T17:00:00.423Z,3.33
2019-02-14T17:01:34.276Z,3.10
2019-02-14T17:03:08.398Z,3.17
2019-02-14T17:04:42.210Z,3.50
2019-02-14T17:06:15.893Z,4.10
2019-02-14T17:07:49.763Z,3.70
2019-02-14T17:09:23.541Z,3.70
2019-02-14T17:10:58.507Z,3.30
2019-02-14T17:12:32.626Z,3.57
2019-02-14T17:14:06.651Z,3.23
2019-02-14T17:15:40.634Z,3.50
2019-02-14T17:17:14.838Z,3.23
2019-02-14T17:18:48.702Z,4.27
2019-02-14T17:20:23.519Z,3.60
2019-02-14T17:21:57.441Z,3.67
2019-02-14T17:23:31.506Z,3.30
2019-02-14T17:25:05.489Z,3.47
2019-02-14T17:26:39.266Z,3.60
2019-02-14T17:28:12.032Z,3.20
2019-02-14T17:29:45.956Z,4.10
2019-02-14T17:31:18.907Z,3.37
2019-02-14T17:32:52.832Z,4.00
2019-02-14T17:34:25.807Z,3.43
2019-02-14T17:35:58.743Z,3.37
2019-02-14T17:37:31.684Z,3.43
2019-02-14T17:39:05.368Z,3.33
2019-02-14T17:40:45.836Z,4.10
2019-02-14T17:42:13.317Z,3.20
2019-02-14T17:43:47.174Z,3.70
2019-02-14T17:45:21.110Z,3.43
2019-02-14T17:46:54.975Z,3.77
2019-02-14T17:48:28.984Z,4.07
2019-02-14T17:50:04.033Z,3.87
2019-02-14T17:51:38.252Z,3.97
2019-02-14T17:53:12.207Z,4.20
2019-02-14T17:54:46.102Z,3.97
2019-02-14T17:56:21.091Z,3.80
2019-02-14T17:57:56.605Z,3.67
2019-02-14T17:59:29.483Z,4.03
2019-02-14T18:01:04.310Z,3.53
2019-02-14T18:02:38.259Z,4.03
2019-02-14T18:04:12.205Z,4.17
2019-02-14T18:05:46.176Z,3.90
2019-02-14T18:07:20.814Z,3.87
2019-02-14T18:08:54.936Z,4.00
2019-02-14T18:10:29.774Z,3.70
2019-02-14T18:12:03.466Z,3.60
2019-02-14T18:13:37.377Z,3.57
2019-02-14T18:15:11.253Z,3.70
2019-02-14T18:16:46.356Z,3.83
2019-02-14T18:18:20.182Z,4.80
2019-02-14T18:19:52.972Z,3.60
2019-02-14T18:21:26.057Z,3.83
2019-02-14T18:22:59.738Z,3.77
2019-02-14T18:24:33.668Z,3.77
2019-02-14T18:26:06.635Z,4.17
2019-02-14T18:27:40.537Z,4.10
2019-02-14T18:29:13.484Z,3.97
2019-02-14T18:30:47.265Z,4.23
2019-02-14T18:32:21.014Z,3.70
2019-02-14T18:33:53.777Z,4.40
2019-02-14T18:35:27.694Z,4.10
2019-02-14T18:37:00.809Z,3.53
2019-02-14T18:38:34.486Z,3.70
2019-02-14T18:40:07.127Z,3.80
2019-02-14T18:41:41.140Z,4.00
2019-02-14T18:43:15.175Z,4.40
2019-02-14T18:44:48.245Z,4.23
2019-02-14T18:46:22.286Z,4.00
2019-02-14T18:47:56.355Z,3.73
2019-02-14T18:49:29.434Z,3.70
2019-02-14T18:51:03.356Z,4.23
2019-02-14T18:52:37.227Z,4.30
2019-02-14T18:54:10.409Z,3.80
2019-02-14T18:55:43.210Z,4.27
2019-02-14T18:57:16.907Z,4.07
2019-02-14T18:58:50.903Z,3.90
2019-02-14T19:00:26.935Z,4.67
2019-02-14T19:02:01.767Z,4.20
2019-02-14T19:03:35.668Z,4.37
2019-02-14T19:05:09.403Z,3.53
2019-02-14T19:06:43.272Z,3.80
2019-02-14T19:08:16.073Z,4.67
2019-02-14T19:09:49.957Z,4.30
2019-02-14T19:11:24.087Z,4.20
2019-02-14T19:12:58.047Z,4.10
2019-02-14T19:14:31.965Z,3.90
2019-02-14T19:16:05.909Z,4.60
2019-02-14T19:17:40.422Z,3.93
2019-02-14T19:19:14.407Z,3.63
2019-02-14T19:20:48.299Z,4.00
2019-02-14T19:22:22.248Z,4.30
2019-02-14T19:23:56.116Z,3.83
2019-02-14T19:25:30.154Z,4.40
2019-02-14T19:27:03.908Z,4.10
2019-02-14T19:28:38.861Z,4.13
2019-02-14T19:30:12.962Z,4.00
2019-02-14T19:31:47.977Z,4.50
2019-02-14T19:33:21.257Z,4.63
2019-02-14T19:34:54.218Z,4.73
2019-02-14T19:36:28.153Z,4.53
2019-02-14T19:38:02.375Z,4.40
2019-02-14T19:39:36.255Z,4.13
2019-02-14T19:41:11.085Z,4.47
2019-02-14T19:42:45.100Z,4.67
2019-02-14T19:44:19.063Z,4.50
2019-02-14T19:45:52.991Z,4.30
2019-02-14T19:47:26.890Z,3.87
2019-02-14T19:49:01.153Z,4.60
2019-02-14T19:50:35.105Z,3.83
2019-02-14T19:52:11.878Z,3.63
2019-02-14T19:53:43.732Z,4.60
2019-02-14T19:55:18.660Z,4.40
2019-02-14T19:56:52.697Z,4.50
2019-02-14T19:58:26.719Z,4.70
2019-02-14T19:59:59.462Z,4.90
2019-02-14T20:01:33.357Z,4.50
2019-02-14T20:03:06.430Z,4.40
2019-02-14T20:04:39.335Z,4.57
2019-02-14T20:06:13.203Z,4.57
2019-02-14T20:07:47.115Z,4.63
2019-02-14T20:09:22.004Z,4.57
2019-02-14T20:10:56.819Z,4.40
2019-02-14T20:12:30.885Z,4.47
2019-02-14T20:14:04.875Z,4.40
2019-02-14T20:15:39.853Z,4.60
2019-02-14T20:17:13.976Z,4.50
2019-02-14T20:18:47.763Z,4.87
2019-02-14T20:20:22.695Z,5.00
2019-02-14T20:21:56.746Z,4.27
2019-02-14T20:23:31.030Z,4.23
2019-02-14T20:25:03.928Z,4.20
2019-02-14T20:26:38.645Z,4.80
2019-02-14T20:28:12.858Z,4.33
2019-02-14T20:29:46.178Z,4.80
2019-02-14T20:31:20.221Z,5.37
2019-02-14T20:33:03.925Z,5.00
2019-02-14T20:34:28.385Z,4.53
2019-02-14T20:36:02.496Z,4.90
2019-02-14T20:37:36.399Z,4.17
2019-02-14T20:39:10.468Z,4.73
2019-02-14T20:40:46.134Z,5.17
2019-02-14T20:42:20.158Z,4.40
2019-02-14T20:43:52.979Z,5.00
2019-02-14T20:45:27.050Z,4.93
2019-02-14T20:47:00.891Z,4.87
2019-02-14T20:48:34.017Z,5.30
2019-02-14T20:50:07.875Z,4.90